sensor_id;sensor_type;location;lat;lon;timestamp;pressure;altitude;pressure_sealevel;temperature;humidity
71716;BME280;59568;52.128;5.434;2023-05-22T00:00:15;101690.75;;;15.36;93.56
71716;BME280;59568;52.128;5.434;2023-05-22T00:02:42;101689.78;;;15.32;93.21
71716;BME280;59568;52.128;5.434;2023-05-22T00:05:11;101688.53;;;15.30;92.71
71716;BME280;59568;52.128;5.434;2023-05-22T00:07:39;101688.06;;;15.28;93.49
71716;BME280;59568;52.128;5.434;2023-05-22T00:10:07;101679.47;;;15.22;93.98
71716;BME280;59568;52.128;5.434;2023-05-22T00:12:34;101680.84;;;15.20;93.72
71716;BME280;59568;52.128;5.434;2023-05-22T00:15:01;101676.16;;;15.16;93.51
71716;BME280;59568;52.128;5.434;2023-05-22T00:17:29;101674.63;;;15.15;93.30
71716;BME280;59568;52.128;5.434;2023-05-22T00:19:56;101675.69;;;15.14;93.70
71716;BME280;59568;52.128;5.434;2023-05-22T00:22:35;101668.41;;;15.11;94.27
71716;BME280;59568;52.128;5.434;2023-05-22T00:25:02;101654.75;;;15.09;94.72
71716;BME280;59568;52.128;5.434;2023-05-22T00:27:30;101650.06;;;15.06;94.61
71716;BME280;59568;52.128;5.434;2023-05-22T00:29:57;101648.53;;;15.05;94.24
71716;BME280;59568;52.128;5.434;2023-05-22T00:32:24;101652.81;;;15.01;93.80
71716;BME280;59568;52.128;5.434;2023-05-22T00:34:52;101650.19;;;15.01;94.13
71716;BME280;59568;52.128;5.434;2023-05-22T00:37:19;101653.88;;;15.00;95.36
71716;BME280;59568;52.128;5.434;2023-05-22T00:39:47;101647.06;;;14.99;96.41
71716;BME280;59568;52.128;5.434;2023-05-22T00:42:14;101646.59;;;14.97;96.85
71716;BME280;59568;52.128;5.434;2023-05-22T00:44:41;101635.53;;;14.95;97.40
71716;BME280;59568;52.128;5.434;2023-05-22T00:47:08;101647.16;;;14.94;98.00
71716;BME280;59568;52.128;5.434;2023-05-22T00:49:35;101634.00;;;14.94;98.61
71716;BME280;59568;52.128;5.434;2023-05-22T00:52:02;101632.44;;;14.93;98.89
71716;BME280;59568;52.128;5.434;2023-05-22T00:54:30;101641.13;;;14.93;98.62
71716;BME280;59568;52.128;5.434;2023-05-22T00:56:58;101636.63;;;14.94;98.16
71716;BME280;59568;52.128;5.434;2023-05-22T00:59:27;101628.75;;;14.94;98.32
71716;BME280;59568;52.128;5.434;2023-05-22T01:01:55;101629.81;;;14.93;98.36
71716;BME280;59568;52.128;5.434;2023-05-22T01:04:24;101623.75;;;14.92;98.40
71716;BME280;59568;52.128;5.434;2023-05-22T01:06:52;101624.53;;;14.93;98.64
71716;BME280;59568;52.128;5.434;2023-05-22T01:09:19;101613.25;;;14.92;98.37
71716;BME280;59568;52.128;5.434;2023-05-22T01:17:35;101608.59;;;14.89;98.78
71716;BME280;59568;52.128;5.434;2023-05-22T01:20:28;101611.22;;;14.89;98.62
71716;BME280;59568;52.128;5.434;2023-05-22T01:23:37;101607.78;;;14.89;98.83
71716;BME280;59568;52.128;5.434;2023-05-22T01:29:13;101603.31;;;14.89;99.35
71716;BME280;59568;52.128;5.434;2023-05-22T01:31:42;101599.88;;;14.89;99.40
71716;BME280;59568;52.128;5.434;2023-05-22T01:34:12;101605.00;;;14.85;99.30
71716;BME280;59568;52.128;5.434;2023-05-22T01:36:40;101604.50;;;14.83;99.79
71716;BME280;59568;52.128;5.434;2023-05-22T01:39:10;101605.84;;;14.81;99.70
71716;BME280;59568;52.128;5.434;2023-05-22T01:41:39;101604.59;;;14.78;99.29
71716;BME280;59568;52.128;5.434;2023-05-22T01:44:06;101605.69;;;14.77;98.07
71716;BME280;59568;52.128;5.434;2023-05-22T01:46:33;101594.34;;;14.76;97.54
71716;BME280;59568;52.128;5.434;2023-05-22T01:49:00;101592.03;;;14.75;97.56
71716;BME280;59568;52.128;5.434;2023-05-22T01:54:21;101588.13;;;14.72;98.28
71716;BME280;59568;52.128;5.434;2023-05-22T01:56:58;101588.72;;;14.69;97.88
71716;BME280;59568;52.128;5.434;2023-05-22T01:59:43;101577.25;;;14.65;96.50
71716;BME280;59568;52.128;5.434;2023-05-22T02:02:13;101583.56;;;14.64;95.57
71716;BME280;59568;52.128;5.434;2023-05-22T02:04:45;101574.13;;;14.63;95.13
71716;BME280;59568;52.128;5.434;2023-05-22T02:07:13;101574.69;;;14.60;95.21
71716;BME280;59568;52.128;5.434;2023-05-22T02:09:41;101572.34;;;14.58;94.65
71716;BME280;59568;52.128;5.434;2023-05-22T02:12:11;101566.91;;;14.55;94.07
71716;BME280;59568;52.128;5.434;2023-05-22T02:14:40;101570.88;;;14.52;93.67
71716;BME280;59568;52.128;5.434;2023-05-22T02:17:07;101567.47;;;14.52;93.61
71716;BME280;59568;52.128;5.434;2023-05-22T02:19:34;101565.44;;;14.49;93.92
71716;BME280;59568;52.128;5.434;2023-05-22T02:22:02;101564.47;;;14.45;93.52
71716;BME280;59568;52.128;5.434;2023-05-22T02:24:30;101574.47;;;14.43;93.38
71716;BME280;59568;52.128;5.434;2023-05-22T02:26:57;101568.72;;;14.41;93.54
71716;BME280;59568;52.128;5.434;2023-05-22T02:29:24;101564.84;;;14.38;93.22
71716;BME280;59568;52.128;5.434;2023-05-22T02:31:52;101565.13;;;14.36;92.79
71716;BME280;59568;52.128;5.434;2023-05-22T02:34:20;101562.03;;;14.34;93.14
71716;BME280;59568;52.128;5.434;2023-05-22T02:36:47;101564.97;;;14.33;93.40
71716;BME280;59568;52.128;5.434;2023-05-22T02:39:19;101560.56;;;14.28;92.72
71716;BME280;59568;52.128;5.434;2023-05-22T02:41:46;101560.56;;;14.28;92.43
71716;BME280;59568;52.128;5.434;2023-05-22T02:44:13;101556.38;;;14.27;92.36
71716;BME280;59568;52.128;5.434;2023-05-22T02:46:40;101567.97;;;14.26;92.52
71716;BME280;59568;52.128;5.434;2023-05-22T02:49:07;101560.06;;;14.26;92.29
71716;BME280;59568;52.128;5.434;2023-05-22T02:51:33;101558.53;;;14.25;92.47
71716;BME280;59568;52.128;5.434;2023-05-22T02:54:01;101551.41;;;14.26;92.43
71716;BME280;59568;52.128;5.434;2023-05-22T02:56:28;101552.19;;;14.26;92.05
71716;BME280;59568;52.128;5.434;2023-05-22T02:58:55;101549.56;;;14.26;92.10
71716;BME280;59568;52.128;5.434;2023-05-22T03:01:25;101550.16;;;14.23;92.45
71716;BME280;59568;52.128;5.434;2023-05-22T03:03:52;101550.72;;;14.20;91.71
71716;BME280;59568;52.128;5.434;2023-05-22T03:06:20;101542.84;;;14.20;91.32
71716;BME280;59568;52.128;5.434;2023-05-22T03:08:48;101545.47;;;14.20;91.50
71716;BME280;59568;52.128;5.434;2023-05-22T03:11:15;101544.97;;;14.18;92.57
71716;BME280;59568;52.128;5.434;2023-05-22T03:13:42;101552.09;;;14.17;92.45
71716;BME280;59568;52.128;5.434;2023-05-22T03:16:09;101546.28;;;14.21;92.08
71716;BME280;59568;52.128;5.434;2023-05-22T03:18:36;101543.31;;;14.22;91.68
71716;BME280;59568;52.128;5.434;2023-05-22T03:21:03;101546.44;;;14.24;92.24
71716;BME280;59568;52.128;5.434;2023-05-22T03:23:30;101538.56;;;14.24;91.94
71716;BME280;59568;52.128;5.434;2023-05-22T03:25:57;101539.84;;;14.27;91.50
71716;BME280;59568;52.128;5.434;2023-05-22T03:28:24;101539.25;;;14.30;91.88
71716;BME280;59568;52.128;5.434;2023-05-22T03:30:51;101543.13;;;14.32;91.91
71716;BME280;59568;52.128;5.434;2023-05-22T03:33:18;101543.13;;;14.32;91.44
71716;BME280;59568;52.128;5.434;2023-05-22T03:35:45;101537.88;;;14.32;92.13
71716;BME280;59568;52.128;5.434;2023-05-22T03:38:11;101545.47;;;14.34;92.47
71716;BME280;59568;52.128;5.434;2023-05-22T03:40:38;101539.94;;;14.35;91.82
71716;BME280;59568;52.128;5.434;2023-05-22T03:43:05;101547.81;;;14.35;91.89
71716;BME280;59568;52.128;5.434;2023-05-22T03:45:32;101549.06;;;14.38;93.40
71716;BME280;59568;52.128;5.434;2023-05-22T03:47:59;101555.72;;;14.35;93.20
71716;BME280;59568;52.128;5.434;2023-05-22T03:50:26;101561.72;;;14.36;92.99
71716;BME280;59568;52.128;5.434;2023-05-22T03:52:53;101548.88;;;14.34;92.92
71716;BME280;59568;52.128;5.434;2023-05-22T03:55:20;101549.06;;;14.38;92.39
71716;BME280;59568;52.128;5.434;2023-05-22T03:57:47;101550.66;;;14.39;92.69
71716;BME280;59568;52.128;5.434;2023-05-22T04:00:14;101542.75;;;14.39;92.77
71716;BME280;59568;52.128;5.434;2023-05-22T04:02:42;101546.44;;;14.38;92.84
71716;BME280;59568;52.128;5.434;2023-05-22T04:05:10;101540.91;;;14.39;93.63
71716;BME280;59568;52.128;5.434;2023-05-22T04:07:37;101548.78;;;14.39;93.52
71716;BME280;59568;52.128;5.434;2023-05-22T04:10:05;101541.19;;;14.38;94.27
71716;BME280;59568;52.128;5.434;2023-05-22T04:12:32;101541.66;;;14.40;93.73
71716;BME280;59568;52.128;5.434;2023-05-22T04:14:59;101548.19;;;14.43;92.84
71716;BME280;59568;52.128;5.434;2023-05-22T04:17:30;101535.03;;;14.43;92.59
71716;BME280;59568;52.128;5.434;2023-05-22T04:19:58;101546.06;;;14.45;92.81
71716;BME280;59568;52.128;5.434;2023-05-22T04:22:26;101558.41;;;14.44;91.81
71716;BME280;59568;52.128;5.434;2023-05-22T04:24:53;101547.91;;;14.44;92.44
71716;BME280;59568;52.128;5.434;2023-05-22T04:27:20;101554.72;;;14.45;92.62
71716;BME280;59568;52.128;5.434;2023-05-22T04:29:48;101563.69;;;14.44;92.16
71716;BME280;59568;52.128;5.434;2023-05-22T04:32:16;101571.28;;;14.46;93.08
71716;BME280;59568;52.128;5.434;2023-05-22T04:34:48;101584.72;;;14.44;93.80
71716;BME280;59568;52.128;5.434;2023-05-22T04:37:18;101579.66;;;14.48;95.25
71716;BME280;59568;52.128;5.434;2023-05-22T04:39:46;101584.34;;;14.51;95.04
71716;BME280;59568;52.128;5.434;2023-05-22T04:42:13;101591.63;;;14.54;95.05
71716;BME280;59568;52.128;5.434;2023-05-22T04:44:41;101593.19;;;14.55;95.56
71716;BME280;59568;52.128;5.434;2023-05-22T04:47:09;101594.19;;;14.59;96.18
71716;BME280;59568;52.128;5.434;2023-05-22T04:49:40;101605.69;;;14.63;96.07
71716;BME280;59568;52.128;5.434;2023-05-22T04:52:11;101602.56;;;14.61;96.09
71716;BME280;59568;52.128;5.434;2023-05-22T04:54:38;101608.91;;;14.60;96.32
71716;BME280;59568;52.128;5.434;2023-05-22T04:57:04;101617.88;;;14.59;96.42
71716;BME280;59568;52.128;5.434;2023-05-22T04:59:35;101609.66;;;14.61;96.52
71716;BME280;59568;52.128;5.434;2023-05-22T05:02:04;101612.97;;;14.66;96.31
71716;BME280;59568;52.128;5.434;2023-05-22T05:04:32;101607.72;;;14.66;96.39
71716;BME280;59568;52.128;5.434;2023-05-22T05:06:59;101616.09;;;14.68;96.22
71716;BME280;59568;52.128;5.434;2023-05-22T05:09:26;101603.91;;;14.72;96.88
71716;BME280;59568;52.128;5.434;2023-05-22T05:11:53;101613.56;;;14.77;97.34
71716;BME280;59568;52.128;5.434;2023-05-22T05:14:20;101610.53;;;14.84;96.86
71716;BME280;59568;52.128;5.434;2023-05-22T05:16:47;101613.25;;;14.92;96.86
71716;BME280;59568;52.128;5.434;2023-05-22T05:19:14;101609.19;;;15.09;95.83
71716;BME280;59568;52.128;5.434;2023-05-22T05:21:42;101604.19;;;15.21;94.99
71716;BME280;59568;52.128;5.434;2023-05-22T05:24:09;101607.41;;;15.32;95.42
71716;BME280;59568;52.128;5.434;2023-05-22T05:26:36;101605.09;;;15.39;94.50
71716;BME280;59568;52.128;5.434;2023-05-22T05:29:03;101606.50;;;15.36;94.82
71716;BME280;59568;52.128;5.434;2023-05-22T05:31:30;101597.28;;;15.70;94.91
71716;BME280;59568;52.128;5.434;2023-05-22T05:33:58;101599.34;;;16.05;93.62
71716;BME280;59568;52.128;5.434;2023-05-22T05:36:25;101600.69;;;16.33;92.93
71716;BME280;59568;52.128;5.434;2023-05-22T05:38:52;101602.63;;;16.59;92.19
71716;BME280;59568;52.128;5.434;2023-05-22T05:41:19;101590.13;;;17.00;91.19
71716;BME280;59568;52.128;5.434;2023-05-22T05:43:47;101600.66;;;17.52;90.66
71716;BME280;59568;52.128;5.434;2023-05-22T05:46:14;101593.16;;;18.27;88.06
71716;BME280;59568;52.128;5.434;2023-05-22T05:48:41;101594.22;;;19.07;85.19
71716;BME280;59568;52.128;5.434;2023-05-22T05:51:08;101598.13;;;19.43;83.36
71716;BME280;59568;52.128;5.434;2023-05-22T05:53:35;101593.41;;;19.61;80.49
71716;BME280;59568;52.128;5.434;2023-05-22T05:56:03;101594.31;;;19.65;80.31
71716;BME280;59568;52.128;5.434;2023-05-22T05:58:30;101585.31;;;19.90;78.15
71716;BME280;59568;52.128;5.434;2023-05-22T06:00:57;101591.75;;;20.26;78.10
71716;BME280;59568;52.128;5.434;2023-05-22T06:03:24;101589.25;;;20.70;77.20
71716;BME280;59568;52.128;5.434;2023-05-22T06:05:51;101589.09;;;21.20;76.33
71716;BME280;59568;52.128;5.434;2023-05-22T06:08:18;101591.19;;;21.42;74.32
71716;BME280;59568;52.128;5.434;2023-05-22T06:10:47;101587.31;;;21.24;73.68
71716;BME280;59568;52.128;5.434;2023-05-22T06:13:14;101591.88;;;21.39;73.13
71716;BME280;59568;52.128;5.434;2023-05-22T06:15:41;101589.66;;;21.41;72.74
71716;BME280;59568;52.128;5.434;2023-05-22T06:18:08;101590.28;;;21.50;72.75
71716;BME280;59568;52.128;5.434;2023-05-22T06:20:35;101592.66;;;21.40;72.33
71716;BME280;59568;52.128;5.434;2023-05-22T06:23:02;101594.47;;;21.07;73.26
71716;BME280;59568;52.128;5.434;2023-05-22T06:25:29;101601.66;;;21.07;74.44
71716;BME280;59568;52.128;5.434;2023-05-22T06:27:57;101605.19;;;20.70;74.63
71716;BME280;59568;52.128;5.434;2023-05-22T06:30:23;101602.75;;;20.78;77.52
71716;BME280;59568;52.128;5.434;2023-05-22T06:33:09;101611.59;;;20.82;75.83
71716;BME280;59568;52.128;5.434;2023-05-22T06:35:36;101612.09;;;20.59;75.20
71716;BME280;59568;52.128;5.434;2023-05-22T06:38:03;101612.06;;;20.47;75.44
71716;BME280;59568;52.128;5.434;2023-05-22T06:40:30;101614.47;;;20.52;76.93
71716;BME280;59568;52.128;5.434;2023-05-22T06:42:57;101616.16;;;20.57;76.81
71716;BME280;59568;52.128;5.434;2023-05-22T06:45:25;101613.25;;;20.74;74.99
71716;BME280;59568;52.128;5.434;2023-05-22T06:47:52;101628.41;;;20.86;75.95
71716;BME280;59568;52.128;5.434;2023-05-22T06:50:20;101624.41;;;20.92;77.09
71716;BME280;59568;52.128;5.434;2023-05-22T06:52:48;101617.50;;;21.03;75.80
71716;BME280;59568;52.128;5.434;2023-05-22T06:55:15;101625.19;;;21.21;74.65
71716;BME280;59568;52.128;5.434;2023-05-22T06:57:42;101611.50;;;21.34;74.80
71716;BME280;59568;52.128;5.434;2023-05-22T07:00:10;101620.34;;;21.39;74.68
71716;BME280;59568;52.128;5.434;2023-05-22T07:02:38;101632.31;;;21.45;73.79
71716;BME280;59568;52.128;5.434;2023-05-22T07:05:05;101624.03;;;21.62;74.83
71716;BME280;59568;52.128;5.434;2023-05-22T07:07:33;101623.09;;;21.70;73.43
71716;BME280;59568;52.128;5.434;2023-05-22T07:10:00;101628.41;;;21.70;73.35
71716;BME280;59568;52.128;5.434;2023-05-22T07:12:28;101621.56;;;21.69;73.96
71716;BME280;59568;52.128;5.434;2023-05-22T07:14:55;101626.94;;;21.73;73.72
71716;BME280;59568;52.128;5.434;2023-05-22T07:17:23;101634.25;;;21.76;73.21
71716;BME280;59568;52.128;5.434;2023-05-22T07:19:50;101629.34;;;21.78;73.64
71716;BME280;59568;52.128;5.434;2023-05-22T07:22:17;101632.13;;;21.98;72.76
71716;BME280;59568;52.128;5.434;2023-05-22T07:24:44;101634.34;;;21.96;73.15
71716;BME280;59568;52.128;5.434;2023-05-22T07:27:13;101632.78;;;21.94;71.83
71716;BME280;59568;52.128;5.434;2023-05-22T07:29:40;101635.78;;;21.93;73.55
71716;BME280;59568;52.128;5.434;2023-05-22T07:32:07;101636.22;;;22.11;72.68
71716;BME280;59568;52.128;5.434;2023-05-22T07:34:34;101631.06;;;22.18;72.44
71716;BME280;59568;52.128;5.434;2023-05-22T07:37:10;101638.38;;;22.37;71.71
71716;BME280;59568;52.128;5.434;2023-05-22T07:39:38;101624.03;;;22.42;71.70
71716;BME280;59568;52.128;5.434;2023-05-22T07:42:05;101636.06;;;22.36;72.17
71716;BME280;59568;52.128;5.434;2023-05-22T07:44:32;101628.81;;;22.52;72.65
71716;BME280;59568;52.128;5.434;2023-05-22T07:47:00;101627.72;;;22.72;72.48
71716;BME280;59568;52.128;5.434;2023-05-22T07:49:27;101633.97;;;22.80;71.92
71716;BME280;59568;52.128;5.434;2023-05-22T07:51:53;101637.13;;;22.86;70.16
71716;BME280;59568;52.128;5.434;2023-05-22T07:54:20;101637.81;;;22.83;70.60
71716;BME280;59568;52.128;5.434;2023-05-22T07:56:48;101641.06;;;22.92;70.34
71716;BME280;59568;52.128;5.434;2023-05-22T07:59:15;101640.44;;;22.99;70.18
71716;BME280;59568;52.128;5.434;2023-05-22T08:01:45;101633.88;;;23.12;71.08
71716;BME280;59568;52.128;5.434;2023-05-22T08:04:12;101634.84;;;23.23;70.88
71716;BME280;59568;52.128;5.434;2023-05-22T08:06:39;101642.06;;;23.42;69.08
71716;BME280;59568;52.128;5.434;2023-05-22T08:09:07;101644.09;;;23.29;69.08
71716;BME280;59568;52.128;5.434;2023-05-22T08:11:34;101643.59;;;23.43;69.96
71716;BME280;59568;52.128;5.434;2023-05-22T08:14:05;101651.97;;;23.65;69.36
71716;BME280;59568;52.128;5.434;2023-05-22T08:16:32;101651.16;;;23.84;68.40
71716;BME280;59568;52.128;5.434;2023-05-22T08:19:00;101660.19;;;23.99;67.90
71716;BME280;59568;52.128;5.434;2023-05-22T08:21:27;101647.75;;;24.10;68.17
71716;BME280;59568;52.128;5.434;2023-05-22T08:23:54;101656.47;;;24.30;68.30
71716;BME280;59568;52.128;5.434;2023-05-22T08:26:21;101656.34;;;24.49;67.15
71716;BME280;59568;52.128;5.434;2023-05-22T08:28:48;101648.84;;;24.55;66.50
71716;BME280;59568;52.128;5.434;2023-05-22T08:31:15;101649.72;;;24.66;66.53
71716;BME280;59568;52.128;5.434;2023-05-22T08:33:42;101651.59;;;24.62;65.35
71716;BME280;59568;52.128;5.434;2023-05-22T08:36:09;101648.50;;;24.60;66.14
71716;BME280;59568;52.128;5.434;2023-05-22T08:38:36;101640.41;;;24.53;65.09
71716;BME280;59568;52.128;5.434;2023-05-22T08:41:03;101645.34;;;24.51;65.61
71716;BME280;59568;52.128;5.434;2023-05-22T08:43:32;101646.28;;;24.66;66.50
71716;BME280;59568;52.128;5.434;2023-05-22T08:46:03;101641.00;;;24.69;64.55
71716;BME280;59568;52.128;5.434;2023-05-22T08:48:31;101645.66;;;24.76;63.28
71716;BME280;59568;52.128;5.434;2023-05-22T08:51:03;101647.22;;;24.77;63.83
71716;BME280;59568;52.128;5.434;2023-05-22T08:53:33;101639.34;;;24.91;63.59
71716;BME280;59568;52.128;5.434;2023-05-22T08:56:05;101639.72;;;24.90;61.60
71716;BME280;59568;52.128;5.434;2023-05-22T08:58:36;101630.53;;;24.87;61.63
71716;BME280;59568;52.128;5.434;2023-05-22T09:01:04;101638.25;;;24.96;62.67
71716;BME280;59568;52.128;5.434;2023-05-22T09:03:32;101642.78;;;24.92;62.51
71716;BME280;59568;52.128;5.434;2023-05-22T09:06:02;101637.91;;;24.98;62.77
71716;BME280;59568;52.128;5.434;2023-05-22T09:08:29;101633.47;;;25.12;63.69
71716;BME280;59568;52.128;5.434;2023-05-22T09:10:56;101634.69;;;25.19;64.05
71716;BME280;59568;52.128;5.434;2023-05-22T09:13:27;101643.31;;;25.39;62.11
71716;BME280;59568;52.128;5.434;2023-05-22T09:16:13;101644.56;;;25.48;61.33
71716;BME280;59568;52.128;5.434;2023-05-22T09:18:41;101638.53;;;25.59;61.85
71716;BME280;59568;52.128;5.434;2023-05-22T09:21:10;101640.59;;;25.76;60.35
71716;BME280;59568;52.128;5.434;2023-05-22T09:23:59;101631.78;;;25.72;60.20
71716;BME280;59568;52.128;5.434;2023-05-22T09:26:27;101632.88;;;25.67;59.83
71716;BME280;59568;52.128;5.434;2023-05-22T09:28:58;101629.31;;;25.97;61.02
71716;BME280;59568;52.128;5.434;2023-05-22T09:31:27;101629.72;;;26.03;57.48
71716;BME280;59568;52.128;5.434;2023-05-22T09:33:54;101627.34;;;25.90;60.86
71716;BME280;59568;52.128;5.434;2023-05-22T09:36:29;101628.41;;;25.82;61.34
71716;BME280;59568;52.128;5.434;2023-05-22T09:38:59;101622.84;;;26.02;60.46
71716;BME280;59568;52.128;5.434;2023-05-22T09:41:27;101614.97;;;26.27;60.38
71716;BME280;59568;52.128;5.434;2023-05-22T09:43:56;101615.88;;;26.56;60.66
71716;BME280;59568;52.128;5.434;2023-05-22T09:46:25;101617.13;;;26.77;59.54
71716;BME280;59568;52.128;5.434;2023-05-22T09:48:52;101617.50;;;26.75;59.38
71716;BME280;59568;52.128;5.434;2023-05-22T09:51:20;101615.88;;;26.56;59.27
71716;BME280;59568;52.128;5.434;2023-05-22T09:53:56;101619.56;;;26.26;58.93
71716;BME280;59568;52.128;5.434;2023-05-22T09:56:26;101616.97;;;26.41;59.80
71716;BME280;59568;52.128;5.434;2023-05-22T09:59:08;101606.63;;;26.43;61.10
71716;BME280;59568;52.128;5.434;2023-05-22T10:01:37;101612.16;;;26.79;57.45
71716;BME280;59568;52.128;5.434;2023-05-22T10:04:07;101614.09;;;26.85;57.62
71716;BME280;59568;52.128;5.434;2023-05-22T10:06:38;101611.44;;;26.89;57.11
71716;BME280;59568;52.128;5.434;2023-05-22T10:09:10;101611.44;;;26.89;58.59
71716;BME280;59568;52.128;5.434;2023-05-22T10:11:45;101612.25;;;27.18;57.07
71716;BME280;59568;52.128;5.434;2023-05-22T10:14:13;101616.91;;;27.39;54.28
71716;BME280;59568;52.128;5.434;2023-05-22T10:16:41;101619.97;;;27.34;53.15
71716;BME280;59568;52.128;5.434;2023-05-22T10:19:11;101614.63;;;27.59;57.97
71716;BME280;59568;52.128;5.434;2023-05-22T10:21:40;101619.22;;;27.95;55.24
71716;BME280;59568;52.128;5.434;2023-05-22T10:24:07;101613.81;;;28.09;56.14
71716;BME280;59568;52.128;5.434;2023-05-22T10:26:36;101603.47;;;27.82;55.97
71716;BME280;59568;52.128;5.434;2023-05-22T10:29:10;101611.56;;;27.75;58.15
71716;BME280;59568;52.128;5.434;2023-05-22T10:34:36;101610.78;;;27.57;55.40
71716;BME280;59568;52.128;5.434;2023-05-22T10:40:00;101604.66;;;27.60;55.17
71716;BME280;59568;52.128;5.434;2023-05-22T10:42:31;101601.59;;;27.43;55.41
71716;BME280;59568;52.128;5.434;2023-05-22T10:45:02;101600.81;;;27.39;56.52
71716;BME280;59568;52.128;5.434;2023-05-22T10:47:32;101594.28;;;27.73;55.70
71716;BME280;59568;52.128;5.434;2023-05-22T10:50:07;101600.72;;;28.29;54.80
71716;BME280;59568;52.128;5.434;2023-05-22T10:52:35;101599.53;;;28.41;51.37
71716;BME280;59568;52.128;5.434;2023-05-22T10:55:08;101600.31;;;28.34;54.34
71716;BME280;59568;52.128;5.434;2023-05-22T10:57:37;101602.97;;;28.52;55.06
71716;BME280;59568;52.128;5.434;2023-05-22T11:00:14;101604.94;;;28.34;54.63
71716;BME280;59568;52.128;5.434;2023-05-22T11:02:43;101601.78;;;28.67;52.65
71716;BME280;59568;52.128;5.434;2023-05-22T11:07:51;101597.47;;;28.81;51.66
71716;BME280;59568;52.128;5.434;2023-05-22T11:10:50;101600.88;;;28.85;51.25
71716;BME280;59568;52.128;5.434;2023-05-22T11:13:17;101597.88;;;28.76;52.23
71716;BME280;59568;52.128;5.434;2023-05-22T11:15:45;101592.63;;;28.43;49.38
71716;BME280;59568;52.128;5.434;2023-05-22T11:18:12;101599.25;;;28.06;55.83
71716;BME280;59568;52.128;5.434;2023-05-22T11:20:42;101585.28;;;28.58;53.91
71716;BME280;59568;52.128;5.434;2023-05-22T11:23:10;101584.66;;;28.99;52.99
71716;BME280;59568;52.128;5.434;2023-05-22T11:25:39;101587.88;;;29.39;53.72
71716;BME280;59568;52.128;5.434;2023-05-22T11:28:07;101578.03;;;29.63;51.90
71716;BME280;59568;52.128;5.434;2023-05-22T11:30:36;101577.69;;;29.58;50.07
71716;BME280;59568;52.128;5.434;2023-05-22T11:33:04;101576.88;;;29.64;52.14
71716;BME280;59568;52.128;5.434;2023-05-22T11:35:32;101580.41;;;29.58;51.27
71716;BME280;59568;52.128;5.434;2023-05-22T11:38:03;101568.59;;;29.44;47.87
71716;BME280;59568;52.128;5.434;2023-05-22T11:40:30;101568.00;;;29.26;51.57
71716;BME280;59568;52.128;5.434;2023-05-22T11:42:57;101571.34;;;29.37;52.68
71716;BME280;59568;52.128;5.434;2023-05-22T11:45:24;101574.63;;;29.56;50.15
71716;BME280;59568;52.128;5.434;2023-05-22T11:47:52;101573.88;;;29.55;51.61
71716;BME280;59568;52.128;5.434;2023-05-22T11:50:20;101569.63;;;29.58;49.72
71716;BME280;59568;52.128;5.434;2023-05-22T11:53:07;101567.44;;;29.45;46.33
71716;BME280;59568;52.128;5.434;2023-05-22T11:55:34;101568.63;;;29.41;47.79
71716;BME280;59568;52.128;5.434;2023-05-22T11:58:01;101564.31;;;29.51;48.91
71716;BME280;59568;52.128;5.434;2023-05-22T12:00:30;101566.91;;;29.61;49.63
71716;BME280;59568;52.128;5.434;2023-05-22T12:02:57;101569.53;;;29.72;48.84
71716;BME280;59568;52.128;5.434;2023-05-22T12:05:25;101576.06;;;29.67;47.52
71716;BME280;59568;52.128;5.434;2023-05-22T12:07:52;101566.75;;;29.79;51.02
71716;BME280;59568;52.128;5.434;2023-05-22T12:10:19;101572.31;;;29.99;50.22
71716;BME280;59568;52.128;5.434;2023-05-22T12:12:46;101567.44;;;30.21;49.37
71716;BME280;59568;52.128;5.434;2023-05-22T12:15:17;101563.09;;;30.35;48.60
71716;BME280;59568;52.128;5.434;2023-05-22T12:17:47;101562.34;;;30.61;48.89
71716;BME280;59568;52.128;5.434;2023-05-22T12:20:15;101564.28;;;30.30;48.47
71716;BME280;59568;52.128;5.434;2023-05-22T12:22:42;101572.31;;;29.99;46.61
71716;BME280;59568;52.128;5.434;2023-05-22T12:25:15;101568.34;;;29.73;46.25
71716;BME280;59568;52.128;5.434;2023-05-22T12:27:46;101567.47;;;29.83;45.03
71716;BME280;59568;52.128;5.434;2023-05-22T12:30:13;101571.84;;;30.08;46.88
71716;BME280;59568;52.128;5.434;2023-05-22T12:32:46;101560.66;;;29.75;46.95
71716;BME280;59568;52.128;5.434;2023-05-22T12:35:14;101567.25;;;30.05;44.61
71716;BME280;59568;52.128;5.434;2023-05-22T12:37:49;101567.84;;;29.85;48.15
71716;BME280;59568;52.128;5.434;2023-05-22T12:40:16;101560.16;;;29.42;44.88
71716;BME280;59568;52.128;5.434;2023-05-22T12:42:44;101560.38;;;29.14;47.27
71716;BME280;59568;52.128;5.434;2023-05-22T12:45:11;101558.28;;;28.80;49.78
71716;BME280;59568;52.128;5.434;2023-05-22T12:47:39;101554.22;;;28.43;49.33
71716;BME280;59568;52.128;5.434;2023-05-22T12:50:07;101551.31;;;27.94;48.62
71716;BME280;59568;52.128;5.434;2023-05-22T12:52:34;101557.47;;;27.69;49.75
71716;BME280;59568;52.128;5.434;2023-05-22T12:55:02;101560.13;;;28.02;48.22
71716;BME280;59568;52.128;5.434;2023-05-22T12:57:28;101564.78;;;27.65;48.66
71716;BME280;59568;52.128;5.434;2023-05-22T12:59:56;101558.25;;;27.27;49.75
71716;BME280;59568;52.128;5.434;2023-05-22T13:02:23;101555.53;;;27.70;49.29
71716;BME280;59568;52.128;5.434;2023-05-22T13:04:50;101552.72;;;28.31;49.14
71716;BME280;59568;52.128;5.434;2023-05-22T13:07:17;101575.38;;;28.30;48.67
71716;BME280;59568;52.128;5.434;2023-05-22T13:09:44;101570.13;;;27.58;49.72
71716;BME280;59568;52.128;5.434;2023-05-22T13:12:11;101581.53;;;26.87;52.26
71716;BME280;59568;52.128;5.434;2023-05-22T13:14:38;101572.53;;;26.40;53.92
71716;BME280;59568;52.128;5.434;2023-05-22T13:17:06;101590.41;;;26.14;54.42